createdAt,value
2023-04-24T00:50:32.642Z,9.80
2023-04-24T00:52:59.358Z,9.40
2023-04-24T00:55:27.218Z,9.40
2023-04-24T00:57:54.264Z,9.40
2023-04-24T01:00:21.595Z,9.40
2023-04-24T01:02:48.514Z,9.40
2023-04-24T01:05:16.478Z,9.50
2023-04-24T01:07:46.336Z,9.40
2023-04-24T01:10:15.326Z,9.40
2023-04-24T01:12:42.340Z,9.30
2023-04-24T01:15:09.798Z,9.30
2023-04-24T03:18:11.961Z,9.30
2023-04-24T08:38:18.190Z,9.00
2023-04-24T08:40:46.892Z,9.50
2023-04-24T08:43:14.982Z,9.40
2023-04-24T08:45:41.758Z,9.40
2023-04-24T08:48:19.892Z,9.50
2023-04-24T08:50:54.897Z,9.60
2023-04-24T08:53:21.671Z,9.50
2023-04-24T08:55:49.790Z,9.50
2023-04-24T08:58:18.789Z,9.50
2023-04-24T09:00:48.075Z,9.50
2023-04-24T09:28:05.638Z,9.30
2023-04-24T09:30:32.717Z,10.10
2023-04-24T09:33:16.508Z,10.10
2023-04-24T09:35:49.304Z,10.40
2023-04-24T09:38:15.931Z,10.40
2023-04-24T09:40:42.724Z,10.70
2023-04-24T09:43:12.439Z,10.60
2023-04-24T09:45:40.679Z,10.60
2023-04-24T09:48:11.734Z,10.60
2023-04-24T09:50:38.623Z,10.80
2023-04-24T09:53:09.648Z,11.00
2023-04-24T10:35:15.815Z,11.10
2023-04-24T10:37:49.351Z,11.80
2023-04-24T10:40:26.175Z,11.70
2023-04-24T10:42:58.678Z,11.60
2023-04-24T10:45:26.021Z,11.40
2023-04-24T10:48:05.962Z,11.30
2023-04-24T11:13:29.251Z,9.30
2023-04-24T12:34:25.034Z,9.50
2023-04-24T12:36:51.722Z,13.00
2023-04-24T12:39:19.417Z,13.20
2023-04-24T12:42:01.131Z,13.50
2023-04-24T12:47:02.606Z,13.80
2023-04-24T12:49:31.704Z,13.40
2023-04-24T12:51:58.303Z,13.50
2023-04-24T12:54:25.531Z,13.60
2023-04-24T12:56:52.628Z,13.60
2023-04-24T12:59:19.292Z,13.80
2023-04-24T13:01:45.979Z,13.80
2023-04-24T13:04:12.767Z,13.90
2023-04-24T13:06:39.607Z,13.30
2023-04-24T13:09:06.225Z,13.30
2023-04-24T13:11:32.857Z,13.40
2023-04-24T13:13:59.574Z,12.90
2023-04-24T13:16:26.297Z,12.60
2023-04-24T13:18:53.033Z,12.70
2023-04-24T13:21:19.674Z,12.70
2023-04-24T13:23:46.281Z,12.70
2023-04-24T13:26:12.974Z,12.70
2023-04-24T13:28:39.663Z,12.80
2023-04-24T13:31:07.290Z,13.00
2023-04-24T13:33:34.051Z,13.30
2023-04-24T13:36:00.858Z,13.40
2023-04-24T13:38:27.492Z,13.30
2023-04-24T13:40:54.213Z,13.30
2023-04-24T13:43:20.801Z,13.10
2023-04-24T13:45:47.595Z,13.20
2023-04-24T13:48:16.310Z,13.20
2023-04-24T13:50:43.788Z,13.20
2023-04-24T13:53:10.521Z,13.20
2023-04-24T13:55:37.441Z,13.30
2023-04-24T13:58:04.106Z,13.20
2023-04-24T14:00:30.879Z,13.10
2023-04-24T14:02:57.796Z,13.20
2023-04-24T14:05:24.605Z,13.50
2023-04-24T14:07:51.896Z,14.00
2023-04-24T14:10:18.651Z,13.90
2023-04-24T14:12:45.357Z,13.50
2023-04-24T14:15:14.064Z,13.40
2023-04-24T14:17:40.852Z,13.30
2023-04-24T14:20:08.197Z,13.50
2023-04-24T15:09:38.880Z,13.80
2023-04-24T15:14:33.044Z,13.80
2023-04-24T15:16:59.902Z,13.70
2023-04-24T15:19:26.708Z,13.80
2023-04-24T15:21:53.490Z,13.70
2023-04-24T15:26:47.358Z,13.70
2023-04-24T15:29:13.944Z,14.10
2023-04-24T15:31:41.174Z,14.50
2023-04-24T15:34:08.149Z,14.70
2023-04-24T15:36:34.799Z,15.10
2023-04-24T15:39:07.761Z,14.60
2023-04-24T15:41:35.744Z,14.20
2023-04-24T15:44:02.333Z,14.10
2023-04-24T15:46:29.082Z,14.10
2023-04-24T15:48:56.065Z,14.30
2023-04-24T15:51:22.695Z,14.70
2023-04-24T15:56:16.908Z,14.40
2023-04-24T15:58:43.720Z,13.60
2023-04-24T16:01:10.619Z,13.40
2023-04-24T16:03:37.670Z,13.10
2023-04-24T16:06:04.820Z,13.30
2023-04-24T16:08:31.574Z,13.60
2023-04-24T16:10:58.265Z,13.40
2023-04-24T16:13:24.901Z,13.10
2023-04-24T16:15:52.016Z,12.90
2023-04-24T16:18:18.854Z,12.70
2023-04-24T16:20:45.639Z,12.50
2023-04-24T16:23:12.400Z,12.60
2023-04-24T16:25:39.003Z,12.50
2023-04-24T16:28:05.658Z,12.40
2023-04-24T16:30:33.559Z,12.40
2023-04-24T16:35:27.677Z,12.30
2023-04-24T16:42:48.854Z,12.20
2023-04-24T16:45:15.542Z,12.00
2023-04-24T16:47:42.312Z,11.80
2023-04-24T16:50:09.786Z,11.70
2023-04-24T16:52:36.507Z,11.70
2023-04-24T16:55:03.146Z,11.80
2023-04-24T16:57:30.192Z,12.00
2023-04-24T17:02:24.113Z,12.60
2023-04-24T17:04:50.880Z,13.40
2023-04-24T17:07:17.716Z,13.70
2023-04-24T17:09:44.464Z,13.70
2023-04-24T17:12:11.116Z,13.10
2023-04-24T17:14:37.798Z,13.00
2023-04-24T17:17:04.614Z,13.40
2023-04-24T17:19:31.373Z,13.50
2023-04-24T17:21:58.265Z,13.80
2023-04-24T17:24:24.936Z,14.10
2023-04-24T17:26:52.018Z,14.30
2023-04-24T17:29:19.821Z,14.20
2023-04-24T17:31:46.453Z,13.60
2023-04-24T17:34:13.226Z,13.20
2023-04-24T17:36:40.003Z,13.00
2023-04-24T17:39:06.698Z,12.90
2023-04-24T17:41:33.309Z,12.50
2023-04-24T17:44:00.042Z,12.30
2023-04-24T17:46:26.941Z,12.30
2023-04-24T17:48:54.117Z,12.30
2023-04-24T17:51:21.019Z,12.10
2023-04-24T17:53:48.702Z,12.00
2023-04-24T17:56:15.553Z,11.70
2023-04-24T18:01:09.593Z,11.50
2023-04-24T18:03:36.441Z,11.10
2023-04-24T18:06:03.355Z,11.00
2023-04-24T18:08:30.022Z,10.90
2023-04-24T18:10:58.214Z,10.80
2023-04-24T18:13:24.822Z,10.70
2023-04-24T18:15:52.137Z,10.60
2023-04-24T18:18:18.831Z,10.40
2023-04-24T18:20:46.320Z,10.40
2023-04-24T18:23:13.658Z,10.30
2023-04-24T18:25:40.871Z,10.20
2023-04-24T18:28:08.038Z,10.10
2023-04-24T18:30:34.988Z,10.00
2023-04-24T18:33:02.413Z,10.10
2023-04-24T18:35:29.091Z,10.00
2023-04-24T18:37:55.759Z,9.90
2023-04-24T18:40:22.697Z,9.90
2023-04-24T18:42:50.087Z,9.80
2023-04-24T18:45:16.863Z,9.80
2023-04-24T18:47:50.782Z,9.70
2023-04-24T18:50:19.535Z,9.70
2023-04-24T18:52:46.221Z,9.60
2023-04-24T18:55:12.834Z,9.60
2023-04-24T18:57:39.458Z,9.50
2023-04-24T19:34:37.164Z,9.60
2023-04-24T19:37:05.074Z,9.00
2023-04-24T19:39:32.349Z,8.90
2023-04-24T19:54:20.341Z,8.80
2023-04-24T23:57:36.494Z,8.60
